Airfield :
LOGIN :

Register | Disclaimer

   EN    FR    IT 

 










Legend :    VFR   Marginal VFR   IFR   Intensive IFR   Very Intensive IFR
Visi :
Ceiling :
>= 8 km
>= 3000ft
5 to 8 km
1000 to 3000 ft
1500m to 5 km
500 to 1000 ft
800 to 1500m
200 to 500 ft
< 800m
< 200 ft
Symbols :   Thunderstorms  Fog  Heavy snow  Heavy precipitations  Wind > 20 kt
SIGMETs :     Misc.  Thunderstorms  Icing  Turbulence  Mountain Waves  Volcanic Ashes







- Airport Elevation : 256 ft
- IATA code : CFR
- Download approach charts


LFRK - Caen

EXPIRED METARs :
  • 241430Z AUTO 26011KT 220V290 9999 SCT043 BKN076 24/14 Q1017 NOSIG
  • 241400Z AUTO 25010KT 9999 BKN042 OVC078 25/14 Q1017 TEMPO 31010KT
  • 241330Z AUTO 26011KT 9999 BKN038 BKN076 23/15 Q1017 NOSIG
  • 241300Z AUTO 25012KT 9999 OVC033 23/14 Q1018 TEMPO 31010KT
  • 241230Z AUTO 25011KT 9999 OVC031 22/14 Q1018 TEMPO 31010KT
  • 241200Z AUTO 24012KT 200V270 9999 OVC028 21/14 Q1018 NOSIG

Expired Forecast.
Met : +33 2 31 26 68 11
No reported NOTAMs for that airfield.



MET'MAP, your aeronautical weather chart ! - Copyright ORBIFLY December 2007 - Disclaimer

ORBIFLY MET'MAP TEAM :

Programming & Development : Alexandra Zaïnal
Concept & Development : Baudouin d'Aumeries
Co-Development & Prog : Marc-Olivier Méhu
Technical & hardware support : Manuel Goepfert

Contact : metmap@orbifly.com




SOURCES & CREDITS :

   NOAA